PDT,Max TemperatureF,Mean TemperatureF,Min TemperatureF,Max Dew PointF,MeanDew PointF,Min DewpointF,Max Humidity, Mean Humidity, Min Humidity, Max Sea Level PressureIn, Mean Sea Level PressureIn, Min Sea Level PressureIn, Max VisibilityMiles, Mean VisibilityMiles, Min VisibilityMiles, Max Wind SpeedMPH, Mean Wind SpeedMPH, Max Gust SpeedMPH,PrecipitationIn, CloudCover, Events, WindDirDegrees
2013-9-1,82,72,61,57,55,52,82,61,41,29.90,29.86,29.80,10,10,10,7,3,,0.00,2,,190
2013-9-2,82,73,64,56,54,52,73,55,38,29.95,29.89,29.87,10,10,10,7,2,,0.00,3,,211
2013-9-3,75,70,64,61,59,54,88,73,48,30.03,29.98,29.94,10,10,8,6,2,,0.12,6,Rain,327
2013-9-4,72,67,62,59,58,57,84,75,61,30.06,30.03,30.01,10,10,9,12,2,,0.00,5,Rain,326
2013-9-5,69,65,62,61,58,56,88,80,68,30.04,30.00,29.95,10,9,5,10,2,,0.46,6,Rain-Thunderstorm,296
2013-9-6,73,68,62,61,60,57,94,83,61,30.12,30.02,29.96,10,8,2,8,5,,1.08,7,Rain,139
2013-9-7,73,68,64,59,58,56,84,73,55,30.11,30.07,30.02,10,10,10,7,2,,0.00,4,Rain,315
2013-9-8,80,70,60,58,57,55,86,67,44,30.12,30.07,30.03,10,10,10,6,1,,0.01,2,,319
2013-9-9,78,68,59,59,57,55,93,76,48,30.08,30.04,29.98,10,6,1,9,3,,0.00,3,,320
2013-9-10,77,68,60,59,57,55,88,71,54,30.00,29.96,29.89,10,9,3,9,3,,0.00,3,,319
2013-9-11,89,76,63,59,57,55,75,56,34,29.94,29.91,29.86,10,10,10,9,3,,0.00,0,,313
2013-9-12,80,70,60,60,58,56,90,71,48,30.01,29.96,29.91,10,8,3,8,2,,0.00,3,,166
2013-9-13,68,64,61,59,58,57,93,80,73,29.98,29.94,29.88,10,9,3,6,2,,0.00,7,,206
2013-9-14,71,66,62,59,57,57,82,75,64,29.88,29.82,29.74,10,9,5,6,2,,0.00,6,,320
2013-9-15,68,64,59,61,58,55,90,84,73,29.82,29.77,29.72,10,7,1,9,4,,0.21,8,Rain-Thunderstorm,174
2013-9-16,72,66,62,57,55,51,81,72,59,29.94,29.90,29.82,10,10,10,13,7,21,0.00,7,,169
2013-9-17,64,62,60,52,50,46,75,65,50,29.94,29.90,29.87,10,10,10,7,3,,0.00,8,,112
2013-9-18,71,64,57,53,50,47,81,65,42,30.08,30.04,29.95,10,10,10,10,5,,0.00,4,,163
2013-9-19,79,66,53,51,48,44,80,59,30,30.04,29.90,29.77,10,10,10,6,1,,0.00,1,,325
2013-9-20,75,64,55,57,51,49,84,66,42,29.76,29.67,29.60,10,10,4,10,7,,0.15,5,Rain,156
2013-9-21,71,64,57,56,53,50,88,72,51,29.73,29.69,29.66,10,10,10,8,5,,0.01,5,,182
2013-9-22,63,60,57,54,52,49,84,76,65,29.76,29.67,29.59,10,10,4,17,10,28,0.37,6,Rain,165
2013-9-23,63,59,55,53,51,49,88,75,65,29.97,29.89,29.77,10,10,10,12,9,20,0.08,6,Rain,171
2013-9-24,64,58,52,50,47,42,86,73,46,29.96,29.90,29.85,10,10,10,14,6,20,0.01,6,,160
2013-9-25,63,56,48,49,47,43,86,74,50,30.04,29.95,29.87,10,10,10,14,3,,0.04,6,Rain,328
2013-9-26,64,54,44,48,45,41,87,75,53,30.14,30.10,30.04,10,9,3,8,4,,0.01,3,Fog,159
2013-9-27,59,56,52,51,48,45,83,75,67,30.13,29.99,29.86,10,10,7,15,10,23,0.05,6,Rain,154
2013-9-28,63,59,55,57,53,48,90,82,74,29.84,29.54,29.36,10,8,2,20,10,34,1.21,7,Rain,159
2013-9-29,57,56,55,52,48,45,83,75,67,29.57,29.46,29.18,10,10,7,18,14,34,0.62,7,Rain,158
2013-9-30,60,55,51,52,47,43,83,76,69,29.94,29.70,29.47,10,9,5,18,13,28,0.63,7,Rain,173